Pevek, Russia
Current Conditions -  °F | °C
As of 2:55 PM on Wednesday 22 Oct 2014 (Local Time) from PALU Reporting Station
Overcast Overcast  
Wind Chill:   Ceiling: 1200
Heat Index: 23°   Visibility: 8mi
Dew Point: 20°   Wind: 33mph
Humidity: 91%   Direction: 70°ENE
Pressure: 29.86"   Gusts: 39mph
Location:  69.7°N, 170.38°E
Report Text: PALU 220255Z AUTO 07029G34KT 8SM OVC012 M05/M06 A2986 RMK AO2 PK WND 07035/0223 SHSNB0101E0213 SLP113 T10511064 52004
Loading
Personal Weather Stations






























Interactive Weather Map
Tropical Storm Tracking
New forecast layout! Learn more

10-Day Weather Forecast

Advertisements
Track Severe Weather on mobile